Time;durP1;ratioP1;P1;durP2;ratioP2;P2;SDS_P1;SDS_P2;PMS_P1;PMS_P2;Temp;Humidity;BMP_temperature;BMP_pressure;BME280_temperature;BME280_humidity;BME280_pressure;Samples;Min_cycle;Max_cycle;Signal;HPM_P1;HPM_P2
2022/10/11 00:01:45;;;;;;;14.15;7.18;;;;;;;4.16;100.00;102479.28;5013387;28;20021;-78
2022/10/11 00:04:11;;;;;;;15.27;7.00;;;;;;;4.06;100.00;102465.75;5013256;28;20376;-79
2022/10/11 00:06:37;;;;;;;17.52;7.35;;;;;;;3.93;100.00;102453.91;5013675;28;20867;-78
2022/10/11 00:09:06;;;;;;;11.95;6.85;;;;;;;3.97;100.00;102465.81;5013411;28;20041;-81
2022/10/11 00:11:31;;;;;;;15.13;7.40;;;;;;;3.97;100.00;102468.38;5013570;28;20100;-79
2022/10/11 00:13:57;;;;;;;12.07;6.85;;;;;;;4.02;100.00;102480.22;5013152;28;20030;-78
2022/10/11 00:16:23;;;;;;;12.00;6.13;;;;;;;3.88;100.00;102466.75;5013435;28;20484;-79
2022/10/11 00:18:48;;;;;;;14.05;7.10;;;;;;;3.79;100.00;102445.53;5012965;28;20026;-79
2022/10/11 00:21:14;;;;;;;12.25;6.90;;;;;;;3.94;100.00;102471.81;5013629;28;20109;-78
2022/10/11 00:23:41;;;;;;;12.90;6.65;;;;;;;3.87;100.00;102471.88;4995484;28;20444;-79
2022/10/11 00:26:10;;;;;;;12.98;7.00;;;;;;;3.87;100.00;102475.28;5013351;28;20048;-79
2022/10/11 00:28:36;;;;;;;13.55;7.10;;;;;;;3.88;100.00;102482.09;5013333;28;20034;-79
2022/10/11 00:31:06;;;;;;;12.15;6.72;;;;;;;3.73;100.00;102465.16;5013167;28;20484;-79
2022/10/11 00:33:31;;;;;;;13.15;6.63;;;;;;;3.72;100.00;102467.72;5013130;28;20034;-78
2022/10/11 00:35:58;;;;;;;9.05;6.50;;;;;;;3.78;100.00;102482.19;5013057;28;20053;-78
2022/10/11 00:38:23;;;;;;;16.30;7.28;;;;;;;3.81;100.00;102495.75;5013015;28;20018;-78
2022/10/11 00:40:49;;;;;;;12.82;6.65;;;;;;;3.73;100.00;102477.09;5013251;28;20069;-79
2022/10/11 00:43:23;;;;;;;13.15;7.40;;;;;;;3.76;100.00;102487.31;5013330;28;20383;-77
2022/10/11 00:45:54;;;;;;;15.68;7.63;;;;;;;3.76;100.00;102497.53;5017083;28;20017;-80
2022/10/11 00:48:29;;;;;;;14.45;7.28;;;;;;;3.77;100.00;102501.78;5016766;28;20036;-78
2022/10/11 00:50:57;;;;;;;10.65;6.57;;;;;;;3.42;100.00;102454.34;5016949;28;20092;-79
2022/10/11 00:53:23;;;;;;;11.82;7.25;;;;;;;3.70;100.00;102502.66;4999060;28;20026;-79
2022/10/11 00:55:54;;;;;;;12.80;7.15;;;;;;;3.61;100.00;102501.03;5017056;28;20041;-78
2022/10/11 00:58:22;;;;;;;14.90;7.38;;;;;;;3.67;100.00;102501.00;5016738;28;20114;-79
2022/10/11 01:00:47;;;;;;;15.75;7.25;;;;;;;3.59;100.00;102497.66;5016677;28;20030;-79
2022/10/11 01:03:14;;;;;;;13.63;6.97;;;;;;;3.47;100.00;102482.41;5016484;28;20033;-78
2022/10/11 01:05:40;;;;;;;14.27;6.70;;;;;;;3.55;100.00;102503.66;5016589;28;20026;-79
2022/10/11 01:08:07;;;;;;;12.32;6.82;;;;;;;3.52;100.00;102497.69;5016767;28;20022;-80
2022/10/11 01:10:32;;;;;;;13.75;7.85;;;;;;;3.48;100.00;102506.25;5016617;28;20026;-79
2022/10/11 01:13:16;;;;;;;15.10;7.32;;;;;;;3.53;100.00;102514.69;5016787;28;20034;-77
2022/10/11 01:15:47;;;;;;;13.30;7.38;;;;;;;3.45;100.00;102504.56;5016447;28;20087;-79
2022/10/11 01:18:17;;;;;;;;;;;;;;;3.51;100.00;102517.28;5016822;28;20018;-79
2022/10/11 01:21:16;;;;;;;11.05;6.57;;;;;;;3.41;100.00;102507.97;5016426;28;19920;-79
2022/10/11 01:23:44;;;;;;;13.98;7.22;;;;;;;3.40;100.00;102513.94;4955793;29;20075;-77
2022/10/11 01:26:32;;;;;;;14.80;7.53;;;;;;;3.28;100.00;102486.78;4955783;29;20479;-79
2022/10/11 01:29:26;;;;;;;13.15;6.85;;;;;;;3.25;100.00;102496.19;4955808;29;20578;-80
2022/10/11 01:32:07;;;;;;;12.85;6.53;;;;;;;3.30;100.00;102499.53;4955780;29;20387;-78
2022/10/11 01:34:45;;;;;;;13.18;6.82;;;;;;;3.34;100.00;102511.41;4955674;29;20094;-79
2022/10/11 01:37:41;;;;;;;14.88;7.45;;;;;;;3.30;100.00;102513.16;4955416;29;20035;-78
2022/10/11 01:40:16;;;;;;;13.30;7.45;;;;;;;3.29;100.00;102515.72;4955573;29;20047;-78
2022/10/11 01:42:42;;;;;;;10.98;6.60;;;;;;;3.15;100.00;102503.88;4955560;29;20041;-79
2022/10/11 01:45:16;;;;;;;11.90;7.50;;;;;;;3.25;100.00;102520.00;4955363;29;20042;-79
2022/10/11 01:47:41;;;;;;;12.13;7.07;;;;;;;3.27;100.00;102517.44;4955607;29;20039;-77
2022/10/11 01:50:40;;;;;;;11.90;7.38;;;;;;;3.25;100.00;102521.72;4939211;29;20035;-79
2022/10/11 01:53:33;;;;;;;15.07;7.32;;;;;;;3.21;100.00;102515.75;4955337;29;20098;-79
2022/10/11 01:55:58;;;;;;;13.35;6.82;;;;;;;3.20;100.00;102520.88;4954279;28;20082;-78
2022/10/11 01:58:48;;;;;;;10.25;6.05;;;;;;;2.86;100.00;102477.66;4955176;29;20122;-79
2022/10/11 02:01:21;;;;;;;14.70;7.43;;;;;;;3.14;100.00;102524.28;5014013;28;20038;-78
2022/10/11 02:03:55;;;;;;;9.35;6.60;;;;;;;2.97;100.00;102519.28;5015586;28;20492;-79
2022/10/11 02:06:36;;;;;;;11.40;6.97;;;;;;;2.93;100.00;102509.09;5015478;28;20083;-79
2022/10/11 02:09:16;;;;;;;18.05;7.78;;;;;;;2.75;100.00;102480.25;5015705;28;20026;-78
2022/10/11 02:11:42;;;;;;;11.75;7.45;;;;;;;2.93;100.00;102512.47;5015333;28;20083;-78
2022/10/11 02:14:11;;;;;;;15.27;8.30;;;;;;;3.03;100.00;102534.56;5015337;28;20026;-78
2022/10/11 02:16:50;;;;;;;15.27;7.95;;;;;;;2.86;100.00;102510.84;5015350;28;20469;-78
2022/10/11 02:19:20;;;;;;;13.30;7.68;;;;;;;2.94;100.00;102546.50;5015261;28;20026;-81
2022/10/11 02:21:51;;;;;;;14.23;8.13;;;;;;;2.76;100.00;102507.47;5015007;28;20366;-80
2022/10/11 02:24:40;;;;;;;13.32;7.45;;;;;;;2.92;100.00;102536.31;5015246;28;20018;-80
2022/10/11 02:27:08;;;;;;;15.93;7.53;;;;;;;2.89;100.00;102533.78;5015223;28;20049;-80
2022/10/11 02:29:38;;;;;;;14.07;7.95;;;;;;;2.88;100.00;102534.63;5015074;28;20029;-78
2022/10/11 02:32:05;;;;;;;12.98;7.97;;;;;;;2.74;100.00;102518.50;5015182;28;20033;-77
2022/10/11 02:34:35;;;;;;;15.38;7.80;;;;;;;2.85;100.00;102540.59;5014888;28;20485;-80
2022/10/11 02:37:19;;;;;;;14.07;7.53;;;;;;;2.83;100.00;102539.72;5014746;28;20045;-78
2022/10/11 02:39:54;;;;;;;13.10;7.75;;;;;;;2.73;100.00;102527.00;5014808;28;20022;-79
2022/10/11 02:42:27;;;;;;;14.18;7.80;;;;;;;2.66;100.00;102520.25;5014821;28;20064;-80
2022/10/11 02:45:17;;;;;;;12.05;7.78;;;;;;;2.79;100.00;102549.97;5015016;28;20077;-79
2022/10/11 02:47:43;;;;;;;11.45;7.70;;;;;;;2.75;100.00;102543.16;5014798;28;20026;-79
2022/10/11 02:50:13;;;;;;;15.40;8.05;;;;;;;2.70;100.00;102532.13;4996863;28;20037;-81
2022/10/11 02:52:38;;;;;;;15.68;8.13;;;;;;;2.68;100.00;102533.84;5014730;28;20025;-79
2022/10/11 02:55:05;;;;;;;13.15;7.53;;;;;;;2.62;100.00;102533.84;5014505;28;20033;-79
2022/10/11 02:57:30;;;;;;;12.85;7.30;;;;;;;2.67;100.00;102544.91;5014607;28;20513;-79
2022/10/11 02:59:55;;;;;;;15.27;8.20;;;;;;;2.67;100.00;102542.34;5014621;28;20075;-79
2022/10/11 03:02:21;;;;;;;13.43;8.32;;;;;;;2.68;100.00;102547.44;5014520;28;20033;-78
2022/10/11 03:04:46;;;;;;;12.40;8.18;;;;;;;2.67;100.00;102542.34;5014601;28;20034;-79
2022/10/11 03:07:11;;;;;;;15.63;8.20;;;;;;;2.66;100.00;102543.22;5014312;28;20022;-80
2022/10/11 03:09:37;;;;;;;18.45;8.65;;;;;;;2.62;100.00;102538.97;5014405;28;20029;-80
2022/10/11 03:12:02;;;;;;;16.23;8.95;;;;;;;2.62;100.00;102554.25;5014375;28;20029;-79
2022/10/11 03:14:28;;;;;;;15.90;7.88;;;;;;;2.58;100.00;102551.72;5014259;28;20033;-81
2022/10/11 03:16:53;;;;;;;12.18;7.63;;;;;;;2.39;100.00;102523.72;5014464;28;20025;-80
2022/10/11 03:19:18;;;;;;;15.43;8.82;;;;;;;2.54;100.00;102555.13;5014106;28;20030;-79
2022/10/11 03:21:44;;;;;;;12.88;7.47;;;;;;;2.30;100.00;102510.13;5013723;28;20113;-80
2022/10/11 03:24:09;;;;;;;13.80;8.68;;;;;;;2.50;100.00;102548.34;5014401;28;20026;-80
2022/10/11 03:26:34;;;;;;;16.40;8.80;;;;;;;2.29;100.00;102512.69;5013970;28;20065;-80
2022/10/11 03:29:00;;;;;;;13.00;7.53;;;;;;;2.30;100.00;102529.69;4996544;28;20076;-80
2022/10/11 03:31:25;;;;;;;14.57;7.70;;;;;;;2.43;100.00;102561.94;5014131;28;20037;-79
2022/10/11 03:33:50;;;;;;;15.98;8.50;;;;;;;2.11;100.00;102499.97;5013918;28;20026;-80
2022/10/11 03:36:16;;;;;;;13.48;7.82;;;;;;;2.43;100.00;102553.44;5013579;28;20052;-80
2022/10/11 03:38:41;;;;;;;17.70;9.05;;;;;;;2.47;100.00;102567.91;5013790;28;20018;-77
2022/10/11 03:41:07;;;;;;;16.17;8.73;;;;;;;2.44;100.00;102565.34;5013784;28;20022;-80
2022/10/11 03:43:32;;;;;;;15.57;8.60;;;;;;;2.18;100.00;102522.06;5013874;28;20025;-79
2022/10/11 03:45:57;;;;;;;16.25;9.25;;;;;;;2.42;100.00;102567.88;5013860;28;20022;-80
2022/10/11 03:48:23;;;;;;;13.80;8.52;;;;;;;2.38;100.00;102568.75;5013725;28;20034;-80
2022/10/11 03:50:48;;;;;;;15.60;9.02;;;;;;;2.18;100.00;102534.78;5013621;28;20098;-80
2022/10/11 03:53:14;;;;;;;15.23;8.88;;;;;;;2.25;100.00;102546.66;4996008;28;20041;-80
2022/10/11 03:55:40;;;;;;;13.40;7.85;;;;;;;2.37;100.00;102571.31;5013913;28;20426;-79
2022/10/11 03:58:06;;;;;;;13.75;8.60;;;;;;;2.33;100.00;102573.00;5013865;28;20030;-79
2022/10/11 04:00:32;;;;;;;14.02;8.20;;;;;;;2.17;100.00;102541.59;5013628;28;20160;-80
2022/10/11 04:02:58;;;;;;;15.30;8.88;;;;;;;2.29;100.00;102559.41;5234775;23;20016;-79
2022/10/11 04:05:23;;;;;;;16.17;8.60;;;;;;;2.35;100.00;102576.38;5012792;28;20034;-80
2022/10/11 04:07:49;;;;;;;16.65;8.45;;;;;;;2.36;100.00;102580.66;5013319;28;20030;-79
2022/10/11 04:10:17;;;;;;;17.85;9.55;;;;;;;1.09;100.00;102373.53;5309607;23;19997;-80
2022/10/11 04:13:01;;;;;;;14.73;9.65;;;;;;;1.14;100.00;102387.06;5013447;28;20428;-80
2022/10/11 04:15:26;;;;;;;14.20;8.65;;;;;;;1.61;100.00;102466.03;5013517;28;20026;-80
2022/10/11 04:17:59;;;;;;;15.43;9.25;;;;;;;1.54;100.00;102456.66;5012832;28;20484;-79
2022/10/11 04:20:24;;;;;;;17.55;9.60;;;;;;;2.33;100.00;102584.91;4995574;28;20370;-80
2022/10/11 04:22:49;;;;;;;15.32;8.57;;;;;;;2.28;100.00;102577.28;5013231;28;20028;-79
2022/10/11 04:25:15;;;;;;;19.30;9.13;;;;;;;2.30;100.00;102590.84;5013504;28;20033;-80
2022/10/11 04:27:40;;;;;;;15.38;9.10;;;;;;;2.28;100.00;102595.97;5013300;28;20553;-80
2022/10/11 04:30:06;;;;;;;15.68;9.95;;;;;;;2.04;100.00;102557.72;5013195;28;20022;-79
2022/10/11 04:32:32;;;;;;;15.60;9.10;;;;;;;2.23;100.00;102596.78;5012835;28;20100;-80
2022/10/11 04:34:57;;;;;;;14.45;9.00;;;;;;;2.18;100.00;102604.47;4995350;28;20061;-79
2022/10/11 04:37:23;;;;;;;15.98;8.73;;;;;;;2.20;100.00;102601.91;5013137;28;20037;-80
2022/10/11 04:39:48;;;;;;;16.17;9.30;;;;;;;2.10;100.00;102590.84;4995064;28;20446;-79
2022/10/11 04:42:13;;;;;;;14.32;9.05;;;;;;;1.96;100.00;102565.34;5013322;28;20034;-79
2022/10/11 04:44:39;;;;;;;12.45;8.25;;;;;;;2.19;100.00;102612.94;5012947;28;20030;-79
2022/10/11 04:47:04;;;;;;;18.33;8.95;;;;;;;2.11;100.00;102607.84;5013033;28;20022;-79
2022/10/11 04:49:30;;;;;;;13.93;9.13;;;;;;;1.97;100.00;102578.97;5012980;28;20033;-79
2022/10/11 04:51:55;;;;;;;15.98;9.70;;;;;;;2.11;100.00;102610.38;5013051;28;20129;-80
2022/10/11 04:54:20;;;;;;;14.98;8.65;;;;;;;1.96;100.00;102595.06;5012976;28;20034;-79
2022/10/11 04:56:46;;;;;;;16.23;9.82;;;;;;;2.10;100.00;102610.41;4994949;28;20493;-79
2022/10/11 04:59:11;;;;;;;15.02;9.00;;;;;;;2.02;100.00;102610.38;5012946;28;20026;-79
2022/10/11 05:01:36;;;;;;;14.63;8.75;;;;;;;1.94;100.00;102597.63;4995236;28;20109;-79
2022/10/11 05:04:02;;;;;;;14.63;9.48;;;;;;;1.85;100.00;102587.41;5012949;28;20036;-79
2022/10/11 05:06:27;;;;;;;14.80;9.65;;;;;;;2.00;100.00;102609.53;5012798;28;20192;-79
2022/10/11 05:08:52;;;;;;;15.60;10.02;;;;;;;1.78;100.00;102585.75;5012721;28;20030;-79
2022/10/11 05:11:18;;;;;;;17.48;9.57;;;;;;;1.94;100.00;102606.97;5012643;28;20077;-79
2022/10/11 05:13:44;;;;;;;16.83;10.38;;;;;;;1.66;100.00;102566.16;4994332;28;20068;-79
2022/10/11 05:16:10;;;;;;;17.55;10.70;;;;;;;1.94;100.00;102619.72;5012796;28;20136;-79
2022/10/11 05:18:35;;;;;;;15.77;11.00;;;;;;;1.76;100.00;102589.09;5012924;28;20101;-79
2022/10/11 05:21:23;;;;;;;18.38;11.02;;;;;;;1.92;100.00;102618.84;5012816;28;20026;-79
2022/10/11 05:23:50;;;;;;;16.60;11.07;;;;;;;1.56;100.00;102567.00;4979492;28;20041;-79
2022/10/11 05:26:16;;;;;;;17.95;11.80;;;;;;;1.67;100.00;102593.34;5012622;28;20069;-79
2022/10/11 05:28:42;;;;;;;19.33;12.23;;;;;;;1.88;100.00;102625.66;4995272;28;20034;-79
2022/10/11 05:31:07;;;;;;;19.13;11.15;;;;;;;1.64;100.00;102587.38;5015525;28;20033;-79
2022/10/11 05:33:33;;;;;;;16.52;11.00;;;;;;;1.78;100.00;102603.56;5016221;28;20034;-79
2022/10/11 05:35:59;;;;;;;16.77;11.05;;;;;;;1.88;100.00;102629.91;5016360;28;20084;-79
2022/10/11 05:38:24;;;;;;;20.40;12.20;;;;;;;1.86;100.00;102632.41;5016188;28;20018;-80
2022/10/11 05:40:50;;;;;;;17.88;11.90;;;;;;;1.89;100.00;102635.00;5015861;28;20543;-79
2022/10/11 05:43:16;;;;;;;18.30;11.60;;;;;;;1.85;100.00;102634.97;5016062;28;20032;-80
2022/10/11 05:45:42;;;;;;;18.15;11.27;;;;;;;1.83;100.00;102636.66;5016024;28;20025;-80
2022/10/11 05:48:08;;;;;;;20.83;11.57;;;;;;;1.82;100.00;102634.97;4998308;28;20032;-80
2022/10/11 05:50:35;;;;;;;20.75;11.25;;;;;;;1.82;100.00;102642.63;5015805;28;20091;-79
2022/10/11 05:53:01;;;;;;;19.33;11.88;;;;;;;1.64;100.00;102618.78;5022992;23;20053;-81
2022/10/11 05:55:26;;;;;;;18.27;12.43;;;;;;;1.80;100.00;102644.31;5015698;28;20044;-81
2022/10/11 05:57:56;;;;;;;17.58;11.75;;;;;;;1.80;100.00;102646.88;4998002;28;20381;-78
2022/10/11 06:00:22;;;;;;;21.17;12.38;;;;;;;1.80;100.00;102649.41;5015694;28;20385;-79
2022/10/11 06:02:48;;;;;;;17.90;12.18;;;;;;;1.52;100.00;102607.72;5015924;28;20519;-80
2022/10/11 06:05:14;;;;;;;19.58;12.88;;;;;;;1.82;100.00;102652.81;5015498;28;20061;-79
2022/10/11 06:07:39;;;;;;;17.45;12.38;;;;;;;1.78;100.00;102653.66;5015820;28;20370;-77
2022/10/11 06:10:05;;;;;;;18.48;12.32;;;;;;;1.62;100.00;102627.28;5183694;23;20034;-79
2022/10/11 06:12:31;;;;;;;21.40;12.98;;;;;;;1.82;100.00;102650.25;5015602;28;20022;-80
2022/10/11 06:18:15;;;;;;;16.98;12.05;;;;;;;1.97;100.00;102663.91;5080047;23;20052;-79
2022/10/11 06:20:40;;;;;;;16.67;12.45;;;;;;;0.98;100.00;102494.72;5015347;28;20033;-79
2022/10/11 06:23:05;;;;;;;20.02;12.60;;;;;;;0.70;100.00;102435.31;5015220;28;20026;-79
2022/10/11 06:26:00;;;;;;;18.70;12.20;;;;;;;2.15;100.00;102665.59;5014895;28;20053;-79
2022/10/11 06:28:30;;;;;;;20.85;13.48;;;;;;;2.24;100.00;102672.41;5015068;28;20046;-79
2022/10/11 06:30:56;;;;;;;20.83;12.30;;;;;;;1.72;100.00;102580.63;5015018;28;20018;-80
2022/10/11 06:33:22;;;;;;;20.40;13.02;;;;;;;2.21;100.00;102645.22;5015121;28;20072;-77
2022/10/11 06:36:18;;;;;;;19.17;13.63;;;;;;;2.51;100.00;102685.19;5015137;28;20030;-77
2022/10/11 06:38:50;;;;;;;19.10;12.57;;;;;;;2.13;100.00;102611.22;5014827;28;20426;-77
2022/10/11 06:41:42;;;;;;;17.25;13.27;;;;;;;2.00;100.00;102577.25;5014420;28;20105;-77
2022/10/11 06:44:14;;;;;;;17.92;13.55;;;;;;;2.77;100.00;102690.28;4916222;29;20444;-78
2022/10/11 06:46:54;;;;;;;;;;;;;;;2.92;100.00;102693.66;4916613;29;20078;-77
2022/10/11 06:49:25;;;;;;;20.67;13.57;;;;;;;2.56;100.00;102621.44;4916429;29;20308;-77
2022/10/11 06:51:53;;;;;;;21.52;13.32;;;;;;;3.10;100.00;102694.47;4915345;29;20152;-73
2022/10/11 06:54:19;;;;;;;19.55;14.40;;;;;;;3.23;100.00;102694.44;4916136;29;20126;-77
2022/10/11 06:56:44;;;;;;;18.35;13.07;;;;;;;3.37;100.00;102696.13;4916036;29;20036;-77
2022/10/11 06:59:30;;;;;;;21.00;14.77;;;;;;;3.53;100.00;102704.56;4897608;29;20105;-76
2022/10/11 07:01:56;;;;;;;20.33;13.95;;;;;;;3.55;100.00;102668.81;4896868;29;20521;-78
2022/10/11 07:04:21;;;;;;;22.98;15.45;;;;;;;3.93;100.00;102699.28;4896700;29;20189;-76
2022/10/11 07:06:46;;;;;;;26.15;15.10;;;;;;;4.08;100.00;102699.19;4896917;29;20056;-79
2022/10/11 07:09:12;;;;;;;19.90;14.93;;;;;;;4.27;100.00;102705.91;4897097;29;20076;-78
2022/10/11 07:11:40;;;;;;;23.58;15.80;;;;;;;4.12;100.00;102659.13;4896744;29;20044;-78
2022/10/11 07:14:06;;;;;;;26.20;16.42;;;;;;;4.60;100.00;102699.66;4896854;29;20055;-78
2022/10/11 07:16:33;;;;;;;22.88;15.55;;;;;;;4.76;100.00;102704.69;4896693;29;20048;-78
2022/10/11 07:19:00;;;;;;;21.60;14.63;;;;;;;4.86;100.00;102707.13;4896838;29;20043;-78
2022/10/11 07:21:27;;;;;;;21.23;15.20;;;;;;;4.97;100.00;102701.06;4944462;28;20042;-79
2022/10/11 07:23:52;;;;;;;20.73;14.68;;;;;;;5.10;100.00;102708.59;4973131;28;20042;-79
2022/10/11 07:26:24;;;;;;;21.33;14.95;;;;;;;5.11;100.00;102706.88;4972696;28;20102;-79
2022/10/11 07:28:50;;;;;;;25.38;15.15;;;;;;;5.29;100.00;102721.22;4968576;28;20035;-75
2022/10/11 07:31:18;;;;;;;28.58;15.93;;;;;;;5.37;100.00;102727.97;4953693;29;20087;-76
2022/10/11 07:33:44;;;;;;;23.77;15.23;;;;;;;5.40;100.00;102711.69;4953521;29;20119;-79
2022/10/11 07:36:10;;;;;;;24.23;15.73;;;;;;;5.54;100.00;102719.25;4962622;28;20039;-78
2022/10/11 07:38:39;;;;;;;29.02;16.30;;;;;;;5.53;100.00;102715.84;4976796;28;20426;-79
2022/10/11 07:41:06;;;;;;;25.42;15.98;;;;;;;5.58;100.00;102718.31;4993987;28;20062;-77
2022/10/11 07:43:31;;;;;;;22.70;15.82;;;;;;;5.65;100.00;102730.22;4994362;28;20048;-79
2022/10/11 07:45:59;;;;;;;21.73;15.88;;;;;;;5.56;100.00;102705.53;4993972;28;20470;-78
2022/10/11 07:48:24;;;;;;;26.88;17.42;;;;;;;5.76;100.00;102725.81;4994046;28;20031;-78
2022/10/11 07:50:50;;;;;;;25.92;16.77;;;;;;;5.81;100.00;102724.03;4994176;28;20018;-79
2022/10/11 07:53:15;;;;;;;39.00;17.30;;;;;;;5.85;100.00;102724.84;5002322;28;20037;-76
2022/10/11 07:55:41;;;;;;;30.13;18.95;;;;;;;5.98;100.00;102729.81;5013606;28;20061;-76
2022/10/11 07:58:10;;;;;;;45.45;24.15;;;;;;;6.06;100.00;102727.16;5013213;28;20061;-78
2022/10/11 08:03:20;;;;;;;24.20;17.33;;;;;;;5.17;100.00;102561.69;4615608;26;20421;-77
2022/10/11 08:05:46;;;;;;;24.25;16.83;;;;;;;6.27;100.00;102731.13;4993751;28;20038;-77
2022/10/11 08:08:11;;;;;;;25.25;17.20;;;;;;;6.35;100.00;102733.59;4993706;28;20022;-77
2022/10/11 08:10:38;;;;;;;26.48;17.20;;;;;;;6.44;100.00;102736.00;4993647;28;20040;-77
2022/10/11 08:13:04;;;;;;;24.17;16.58;;;;;;;6.28;100.00;102695.16;4993384;28;20026;-78
2022/10/11 08:15:29;;;;;;;26.17;16.38;;;;;;;6.50;100.00;102734.22;4993498;28;20101;-74
2022/10/11 08:17:55;;;;;;;28.10;17.60;;;;;;;6.55;100.00;102723.84;4993310;28;20138;-80
2022/10/11 08:20:20;;;;;;;27.52;16.45;;;;;;;6.64;100.00;102733.97;4993684;28;20124;-79
2022/10/11 08:22:46;;;;;;;27.48;16.42;;;;;;;6.77;100.00;102744.88;4993684;28;20106;-78
2022/10/11 08:25:11;;;;;;;27.98;16.80;;;;;;;6.84;100.00;102741.34;4993412;28;20026;-74
2022/10/11 08:32:47;;;;;;;25.02;15.32;;;;;;;7.14;100.00;102748.53;5313278;23;20024;-77
2022/10/11 08:35:12;;;;;;;28.42;17.55;;;;;;;7.04;100.00;102715.31;5014975;28;20484;-77
2022/10/11 08:37:37;;;;;;;24.08;17.73;;;;;;;7.31;100.00;102747.38;5032657;28;20088;-77
2022/10/11 08:40:04;;;;;;;26.52;18.02;;;;;;;7.45;100.00;102756.50;5014670;28;20033;-77
2022/10/11 08:42:38;;;;;;;29.15;16.55;;;;;;;7.39;100.00;102724.97;5032453;28;20026;-78
2022/10/11 08:45:09;;;;;;;25.92;15.10;;;;;;;7.64;100.00;102759.56;5032416;28;20030;-78
2022/10/11 08:47:44;;;;;;;23.15;15.07;;;;;;;7.71;100.00;102760.31;5032714;28;20079;-77
2022/10/11 08:50:19;;;;;;;24.45;14.15;;;;;;;7.78;100.00;102761.03;5032799;28;20029;-77
2022/10/11 08:52:52;;;;;;;21.90;14.15;;;;;;;7.90;100.00;102766.78;5032591;28;20520;-76
2022/10/11 08:55:44;;;;;;;24.80;14.15;;;;;;;7.94;100.00;102752.09;5014002;28;20029;-75
2022/10/11 08:58:30;;;;;;;25.23;12.95;;;;;;;8.06;100.00;102762.13;5032403;28;20057;-78
2022/10/11 09:00:57;;;;;;;30.55;13.77;;;;;;;8.11;100.00;102769.78;5032405;28;20032;-78
2022/10/11 09:03:34;;;;;;;27.45;13.13;;;;;;;8.20;100.00;102770.41;5032374;28;20397;-77
2022/10/11 09:06:24;;;;;;;19.63;12.02;;;;;;;8.22;100.00;102771.22;5035365;28;20036;-77
2022/10/11 09:09:00;;;;;;;26.38;12.85;;;;;;;8.25;100.00;102763.44;5036725;28;20125;-78
2022/10/11 09:12:04;;;;;;;24.90;11.52;;;;;;;8.28;100.00;102773.66;5002048;28;20041;-78
2022/10/11 09:14:42;;;;;;;20.25;12.20;;;;;;;8.34;100.00;102750.38;5035910;28;20033;-79
2022/10/11 09:17:19;;;;;;;20.08;11.00;;;;;;;8.50;100.00;102773.22;5036111;28;20022;-77
2022/10/11 09:20:00;;;;;;;21.83;10.95;;;;;;;8.55;100.00;102768.78;5036246;28;20027;-78
2022/10/11 09:22:51;;;;;;;20.45;10.35;;;;;;;8.51;100.00;102762.03;5036093;28;20044;-76
2022/10/11 09:25:34;;;;;;;22.00;9.85;;;;;;;8.57;100.00;102769.63;5035864;28;20029;-77
2022/10/11 09:28:15;;;;;;;20.52;10.48;;;;;;;8.48;100.00;102751.81;5035704;28;20025;-77
2022/10/11 09:30:47;;;;;;;22.07;10.40;;;;;;;8.68;100.00;102771.94;5035808;28;20032;-76
2022/10/11 09:33:35;;;;;;;22.05;9.90;;;;;;;8.73;100.00;102780.38;5035568;28;20288;-76
2022/10/11 09:36:10;;;;;;;19.42;9.35;;;;;;;8.79;100.00;102755.34;5035790;28;20025;-76
2022/10/11 09:38:42;;;;;;;21.85;9.30;;;;;;;8.95;100.00;102765.25;5035831;28;20029;-75
2022/10/11 09:41:19;;;;;;;20.88;7.40;;;;;;;8.96;100.00;102754.09;5035656;28;20044;-77
2022/10/11 09:43:49;;;;;;;23.10;7.97;;;;;;;8.94;100.00;102732.63;5035457;28;20025;-75
2022/10/11 09:46:38;;;;;;;16.33;6.55;;;;;;;9.15;100.00;102769.03;5035625;28;20025;-76
2022/10/11 09:49:11;;;;;;;19.92;6.68;;;;;;;9.24;100.00;102769.66;5035841;28;20489;-75
2022/10/11 09:51:37;;;;;;;16.40;6.03;;;;;;;9.20;100.00;102768.91;5035619;28;20404;-76
2022/10/11 09:54:04;;;;;;;16.40;6.35;;;;;;;9.24;100.00;102756.75;5035435;28;20029;-76
2022/10/11 09:56:31;;;;;;;17.10;5.65;;;;;;;9.37;100.00;102765.88;5035330;28;20068;-76
2022/10/11 09:59:34;;;;;;;17.45;6.63;;;;;;;9.44;100.00;102773.41;5017454;28;20024;-77
2022/10/11 10:02:29;;;;;;;16.42;4.57;;;;;;;9.51;100.00;102762.91;5035273;28;20425;-74
2022/10/11 10:05:05;;;;;;;17.65;5.70;;;;;;;9.57;99.34;102765.34;4954986;29;20076;-75
2022/10/11 10:07:33;;;;;;;14.68;3.58;;;;;;;9.68;98.27;102771.03;4955122;29;20027;-78
2022/10/11 10:10:19;;;;;;;14.07;3.53;;;;;;;9.76;96.50;102777.69;4955019;29;20085;-75
2022/10/11 10:12:52;;;;;;;13.23;3.70;;;;;;;9.75;95.85;102776.00;4954821;29;20035;-73
2022/10/11 10:15:18;;;;;;;19.25;3.05;;;;;;;9.76;94.42;102758.78;4954633;29;20066;-77
2022/10/11 10:17:49;;;;;;;16.40;3.00;;;;;;;9.91;92.20;102773.78;4953938;28;20356;-78
2022/10/11 10:20:23;;;;;;;17.37;3.43;;;;;;;9.98;91.77;102772.72;4954832;29;20108;-76
2022/10/11 10:22:50;;;;;;;12.25;3.33;;;;;;;10.04;90.87;102767.41;4954984;29;20479;-78
2022/10/11 10:25:23;;;;;;;13.07;3.08;;;;;;;9.90;91.06;102737.72;4954933;29;20041;-76
2022/10/11 10:27:57;;;;;;;10.23;1.95;;;;;;;10.13;89.62;102758.53;4954642;29;20058;-77
2022/10/11 10:30:23;;;;;;;9.68;1.92;;;;;;;10.15;88.77;102761.91;4954409;29;20027;-78
2022/10/11 10:32:57;;;;;;;12.90;2.70;;;;;;;10.17;87.98;102770.44;4954830;29;20035;-79
2022/10/11 10:35:35;;;;;;;15.10;1.88;;;;;;;10.03;85.95;102759.72;4954588;29;20110;-78
2022/10/11 10:38:26;;;;;;;8.80;2.13;;;;;;;9.95;87.98;102746.19;4954451;29;20035;-79
2022/10/11 10:40:57;;;;;;;10.52;2.40;;;;;;;10.07;86.30;102761.28;4980528;28;20064;-78
2022/10/11 10:43:28;;;;;;;17.33;3.15;;;;;;;10.09;86.71;102753.50;5034482;28;20033;-79
2022/10/11 10:46:03;;;;;;;;;;;;;;;10.15;90.07;102768.81;5034871;28;20059;-78
2022/10/11 10:48:51;;;;;;;10.77;2.30;;;;;;;10.26;84.77;102753.88;5034825;28;19959;-78
2022/10/11 10:51:35;;;;;;;16.15;2.03;;;;;;;10.39;84.83;102755.16;5034476;28;20025;-75
2022/10/11 10:54:09;;;;;;;13.65;2.00;;;;;;;10.44;85.84;102760.19;5034240;28;20465;-75
2022/10/11 10:56:45;;;;;;;12.00;2.33;;;;;;;10.52;84.46;102760.78;5169796;22;20509;-75
2022/10/11 10:59:27;;;;;;;11.20;2.10;;;;;;;10.62;85.23;102763.06;5034183;28;20108;-75
2022/10/11 11:02:09;;;;;;;15.90;2.38;;;;;;;10.40;82.15;102707.78;5034294;28;20029;-76
2022/10/11 11:04:35;;;;;;;12.68;2.60;;;;;;;10.75;81.11;102757.47;5034303;28;20032;-74
2022/10/11 11:07:26;;;;;;;10.68;2.03;;;;;;;10.63;83.99;102735.47;5033741;28;20025;-75
2022/10/11 11:10:34;;;;;;;12.80;2.35;;;;;;;10.82;83.55;102753.81;5033815;28;20359;-76
2022/10/11 11:13:18;;;;;;;10.63;1.95;;;;;;;10.84;79.00;102746.84;4973219;28;20023;-78
2022/10/11 11:16:13;;;;;;;9.27;1.98;;;;;;;10.87;81.35;102744.13;4972923;28;20046;-78
2022/10/11 11:18:50;;;;;;;11.05;2.22;;;;;;;10.98;79.38;102746.34;4915805;29;20043;-78
2022/10/11 11:21:38;;;;;;;13.15;2.03;;;;;;;11.12;77.84;102741.56;4915473;29;20115;-78
2022/10/11 11:24:12;;;;;;;12.65;2.17;;;;;;;11.12;78.21;102742.41;4915553;29;20584;-77
2022/10/11 11:26:51;;;;;;;8.73;1.70;;;;;;;11.14;78.14;102732.88;4915369;29;20040;-77
2022/10/11 11:29:47;;;;;;;11.10;2.25;;;;;;;11.15;77.33;102744.88;4915009;29;20127;-77
2022/10/11 11:32:23;;;;;;;12.15;2.10;;;;;;;11.23;73.67;102734.28;4915400;29;20059;-78
2022/10/11 11:34:57;;;;;;;13.00;1.80;;;;;;;11.19;75.51;102722.34;4915110;29;20044;-78
2022/10/11 11:37:29;;;;;;;14.07;2.72;;;;;;;11.34;73.61;102734.75;4915057;29;20452;-78
2022/10/11 11:40:05;;;;;;;11.48;2.42;;;;;;;11.22;74.31;102705.91;4915385;29;20178;-77
2022/10/11 11:42:47;;;;;;;14.85;1.92;;;;;;;11.34;77.15;102728.72;4915098;29;20127;-77
2022/10/11 11:45:35;;;;;;;9.73;1.65;;;;;;;11.29;76.07;102718.53;4915062;29;20139;-79